Maersk Iowa — KABL — position and weather

sailwx.info

Track history (hours):
 
Tides and Currents Weather Stations Pressure Air Temp Water Temp Dewpoint Dewpoint Depression Visibility Wind Speed Wind Dir Waves Ship Positions

Maersk Iowa

Owner: FARRELL LINES INC, Norfolk, VA. More information available from US FCC via Universal Licensing System and Coast Guard Vessel Documentation Center.

Last reported at 2016-Dec-09 15:32 UTC. Time now 2016-Dec-09 23:18 UTC.
Position N 36°52' W 075°53'.

Length 292 m; draft 12.2 m.

Type: Ship (hazmat cat A). MMSI: 367606000.

Date/timePositionNaut miles runAvg speedWind from/ knotsBaromVisibWave heightAir tempDewpointWater temp
2016-Dec-09 15:32N 36°52' W 075°53'1010.0
2016-Dec-09 14:33N 36°57' W 076°03'1413.6
2016-Dec-09 13:33N 36°57' W 076°20'4 4.1
2016-Dec-09 12:29N 36°52' W 076°21'0 0.0
2016-Dec-09 11:32N 36°52' W 076°21'0 0.0
2016-Dec-09 10:32N 36°52' W 076°21'0 0.0
2016-Dec-09 09:32N 36°52' W 076°21'0 0.0
2016-Dec-09 08:32N 36°52' W 076°21'0 0.0
2016-Dec-09 07:28N 36°52' W 076°21'0 0.0
2016-Dec-09 06:31N 36°52' W 076°21'0 0.0
2016-Dec-09 05:29N 36°52' W 076°21'0 0.0
2016-Dec-09 04:26N 36°52' W 076°21'0 0.0
2016-Dec-09 03:31N 36°52' W 076°21'0 0.0
2016-Dec-09 02:31N 36°52' W 076°21'0 0.0
2016-Dec-09 01:31N 36°52' W 076°21'0 0.0
2016-Dec-09 00:31N 36°52' W 076°21'0 0.0
2016-Dec-08 23:31N 36°52' W 076°21'0 0.0
2016-Dec-08 22:31N 36°52' W 076°21'0 0.0
2016-Dec-08 21:31N 36°52' W 076°21'0 0.0
2016-Dec-08 20:31N 36°52' W 076°21'0 0.0
2016-Dec-08 19:25N 36°52' W 076°21'0 0.0
2016-Dec-08 18:25N 36°52' W 076°21'0 0.0
2016-Dec-08 17:31N 36°52' W 076°21'0 0.0
2016-Dec-08 16:31N 36°52' W 076°21'0 0.0
2016-Dec-08 15:31N 36°52' W 076°21'0 0.0
2016-Dec-08 14:31N 36°52' W 076°21'0 0.0
2016-Dec-08 13:28N 36°52' W 076°21'0 0.0
2016-Dec-08 12:31N 36°52' W 076°21'2 2.4
2016-Dec-08 11:33N 36°55' W 076°20'8 8.2
2016-Dec-08 10:33N 37°00' W 076°13'1413.9
2016-Dec-08 09:33N 36°56' W 075°56'43819.4
2016-Dec-07 11:00N 30°12' W 079°18'19326.0 260 / 171017.510.8 22.015.427.1
2016-Dec-07 03:33N 27°00' W 079°46'2926.5
2016-Dec-07 02:27N 26°31' W 079°48'2426.9
2016-Dec-07 01:33N 26°07' W 079°51'2726.7
2016-Dec-07 00:34N 25°40' W 079°53'2626.2
2016-Dec-06 23:33N 25°15' W 080°02'83217.9
2016-Dec-05 01:12N 29°31' W 094°53'710.8
2016-Dec-05 00:33N 29°37' W 094°58'2 2.2
2016-Dec-04 23:33N 29°37' W 095°00'0 0.0
2016-Dec-04 22:32N 29°37' W 095°00'0 0.0
2016-Dec-04 21:33N 29°37' W 095°00'0 0.0
2016-Dec-04 20:33N 29°37' W 095°00'0 0.0
2016-Dec-04 19:32N 29°37' W 095°00'0 0.0
2016-Dec-04 18:32N 29°37' W 095°00'0 0.0
2016-Dec-04 17:32N 29°37' W 095°00'0 0.0
2016-Dec-04 16:33N 29°37' W 095°00'0 0.0
2016-Dec-04 15:29N 29°37' W 095°00'0 0.0
2016-Dec-04 14:32N 29°37' W 095°00'0 0.0
2016-Dec-04 13:29N 29°37' W 095°00'0 0.0
2016-Dec-04 12:23N 29°37' W 095°00'0 0.0
2016-Dec-04 11:29N 29°37' W 095°00'0 0.0
2016-Dec-04 10:32N 29°37' W 095°00'0 0.0
2016-Dec-04 09:32N 29°37' W 095°00'0 0.0
2016-Dec-04 08:33N 29°37' W 095°00'0 0.0
2016-Dec-04 07:32N 29°37' W 095°00'0 0.0
2016-Dec-04 06:32N 29°37' W 095°00'0 0.0
2016-Dec-04 05:29N 29°37' W 095°00'0 0.0
2016-Dec-04 04:33N 29°37' W 095°00'0 0.0
2016-Dec-04 03:32N 29°37' W 095°00'0 0.0
2016-Dec-04 02:32N 29°37' W 095°00'0 0.0
2016-Dec-04 01:32N 29°37' W 095°00'0 0.0
2016-Dec-04 00:32N 29°37' W 095°00'0 0.1
2016-Dec-03 23:33N 29°37' W 095°00'2 2.1
2016-Dec-03 22:33N 29°37' W 094°58'10 9.8
2016-Dec-03 21:33N 29°29' W 094°52'1010.1
2016-Dec-03 20:32N 29°21' W 094°44'  
2016-Dec-01 12:00N 24°18' W 082°42'16315.2 110 / 51017.510.8 25.023.526.5
2016-Dec-01 01:19N 25°32' W 080°02'1114.6
2016-Dec-01 00:33N 25°43' W 080°03'7 7.3
2016-Nov-30 23:34N 25°46' W 080°10'1 0.5
2016-Nov-30 22:31N 25°46' W 080°09'0 0.0
2016-Nov-30 21:34N 25°46' W 080°09'0 0.0
2016-Nov-30 20:34N 25°46' W 080°09'0 0.0
2016-Nov-30 19:33N 25°46' W 080°09'0 0.0
2016-Nov-30 18:34N 25°46' W 080°09'0 0.0
2016-Nov-30 17:31N 25°46' W 080°09'0 0.0
2016-Nov-30 16:31N 25°46' W 080°09'0 0.0
2016-Nov-30 15:31N 25°46' W 080°09'0 0.0
2016-Nov-30 14:30N 25°46' W 080°09'0 0.0
2016-Nov-30 13:33N 25°46' W 080°09'0 0.0
2016-Nov-30 12:33N 25°46' W 080°09'0 0.0
2016-Nov-30 11:31N 25°46' W 080°09'0 0.0
2016-Nov-30 10:33N 25°46' W 080°09'7 6.6
2016-Nov-30 09:33N 25°47' W 080°02'8 8.3
2016-Nov-30 08:33N 25°55' W 080°01'1110.9
2016-Nov-30 07:34N 26°06' W 080°01'1110.8
2016-Nov-30 06:33N 26°17' W 080°00'1111.2
2016-Nov-30 05:33N 26°28' W 079°60'2412.0
2016-Nov-30 03:33N 26°52' W 079°59'1211.8
2016-Nov-30 02:33N 27°04' W 079°59'  
Track history (hours):
 
Tides and Currents Weather Stations Pressure Air Temp Water Temp Dewpoint Dewpoint Depression Visibility Wind Speed Wind Dir Waves Ship Positions

Maersk Iowa

Owner: FARRELL LINES INC, Norfolk, VA. More information available from US FCC via Universal Licensing System and Coast Guard Vessel Documentation Center.

Last reported at 2016-Dec-09 15:32 UTC. Time now 2016-Dec-09 23:18 UTC.
Position N 36°52' W 075°53'.

Length 292 m; draft 12.2 m.

Type: Ship (hazmat cat A). MMSI: 367606000.

Date/timePositionNaut miles runAvg speedWind from/ knotsBaromVisibWave heightAir tempDewpointWater temp
2016-Dec-09 15:32N 36°52' W 075°53'1010.0
2016-Dec-09 14:33N 36°57' W 076°03'1413.6
2016-Dec-09 13:33N 36°57' W 076°20'4 4.1
2016-Dec-09 12:29N 36°52' W 076°21'0 0.0
2016-Dec-09 11:32N 36°52' W 076°21'0 0.0
2016-Dec-09 10:32N 36°52' W 076°21'0 0.0
2016-Dec-09 09:32N 36°52' W 076°21'0 0.0
2016-Dec-09 08:32N 36°52' W 076°21'0 0.0
2016-Dec-09 07:28N 36°52' W 076°21'0 0.0
2016-Dec-09 06:31N 36°52' W 076°21'0 0.0
2016-Dec-09 05:29N 36°52' W 076°21'0 0.0
2016-Dec-09 04:26N 36°52' W 076°21'0 0.0
2016-Dec-09 03:31N 36°52' W 076°21'0 0.0
2016-Dec-09 02:31N 36°52' W 076°21'0 0.0
2016-Dec-09 01:31N 36°52' W 076°21'0 0.0
2016-Dec-09 00:31N 36°52' W 076°21'0 0.0
2016-Dec-08 23:31N 36°52' W 076°21'0 0.0
2016-Dec-08 22:31N 36°52' W 076°21'0 0.0
2016-Dec-08 21:31N 36°52' W 076°21'0 0.0
2016-Dec-08 20:31N 36°52' W 076°21'0 0.0
2016-Dec-08 19:25N 36°52' W 076°21'0 0.0
2016-Dec-08 18:25N 36°52' W 076°21'0 0.0
2016-Dec-08 17:31N 36°52' W 076°21'0 0.0
2016-Dec-08 16:31N 36°52' W 076°21'0 0.0
2016-Dec-08 15:31N 36°52' W 076°21'0 0.0
2016-Dec-08 14:31N 36°52' W 076°21'0 0.0
2016-Dec-08 13:28N 36°52' W 076°21'0 0.0
2016-Dec-08 12:31N 36°52' W 076°21'2 2.4
2016-Dec-08 11:33N 36°55' W 076°20'8 8.2
2016-Dec-08 10:33N 37°00' W 076°13'1413.9
2016-Dec-08 09:33N 36°56' W 075°56'43819.4
2016-Dec-07 11:00N 30°12' W 079°18'19326.0 260 / 171017.510.8 22.015.427.1
2016-Dec-07 03:33N 27°00' W 079°46'2926.5
2016-Dec-07 02:27N 26°31' W 079°48'2426.9
2016-Dec-07 01:33N 26°07' W 079°51'2726.7
2016-Dec-07 00:34N 25°40' W 079°53'2626.2
2016-Dec-06 23:33N 25°15' W 080°02'83217.9
2016-Dec-05 01:12N 29°31' W 094°53'710.8
2016-Dec-05 00:33N 29°37' W 094°58'2 2.2
2016-Dec-04 23:33N 29°37' W 095°00'0 0.0
2016-Dec-04 22:32N 29°37' W 095°00'0 0.0
2016-Dec-04 21:33N 29°37' W 095°00'0 0.0
2016-Dec-04 20:33N 29°37' W 095°00'0 0.0
2016-Dec-04 19:32N 29°37' W 095°00'0 0.0
2016-Dec-04 18:32N 29°37' W 095°00'0 0.0
2016-Dec-04 17:32N 29°37' W 095°00'0 0.0
2016-Dec-04 16:33N 29°37' W 095°00'0 0.0
2016-Dec-04 15:29N 29°37' W 095°00'0 0.0
2016-Dec-04 14:32N 29°37' W 095°00'0 0.0
2016-Dec-04 13:29N 29°37' W 095°00'0 0.0
2016-Dec-04 12:23N 29°37' W 095°00'0 0.0
2016-Dec-04 11:29N 29°37' W 095°00'0 0.0
2016-Dec-04 10:32N 29°37' W 095°00'0 0.0
2016-Dec-04 09:32N 29°37' W 095°00'0 0.0
2016-Dec-04 08:33N 29°37' W 095°00'0 0.0
2016-Dec-04 07:32N 29°37' W 095°00'0 0.0
2016-Dec-04 06:32N 29°37' W 095°00'0 0.0
2016-Dec-04 05:29N 29°37' W 095°00'0 0.0
2016-Dec-04 04:33N 29°37' W 095°00'0 0.0
2016-Dec-04 03:32N 29°37' W 095°00'0 0.0
2016-Dec-04 02:32N 29°37' W 095°00'0 0.0
2016-Dec-04 01:32N 29°37' W 095°00'0 0.0
2016-Dec-04 00:32N 29°37' W 095°00'0 0.1
2016-Dec-03 23:33N 29°37' W 095°00'2 2.1
2016-Dec-03 22:33N 29°37' W 094°58'10 9.8
2016-Dec-03 21:33N 29°29' W 094°52'1010.1
2016-Dec-03 20:32N 29°21' W 094°44'  
2016-Dec-01 12:00N 24°18' W 082°42'16315.2 110 / 51017.510.8 25.023.526.5
2016-Dec-01 01:19N 25°32' W 080°02'1114.6
2016-Dec-01 00:33N 25°43' W 080°03'7 7.3
2016-Nov-30 23:34N 25°46' W 080°10'1 0.5
2016-Nov-30 22:31N 25°46' W 080°09'0 0.0
2016-Nov-30 21:34N 25°46' W 080°09'0 0.0
2016-Nov-30 20:34N 25°46' W 080°09'0 0.0
2016-Nov-30 19:33N 25°46' W 080°09'0 0.0
2016-Nov-30 18:34N 25°46' W 080°09'0 0.0
2016-Nov-30 17:31N 25°46' W 080°09'0 0.0
2016-Nov-30 16:31N 25°46' W 080°09'0 0.0
2016-Nov-30 15:31N 25°46' W 080°09'0 0.0
2016-Nov-30 14:30N 25°46' W 080°09'0 0.0
2016-Nov-30 13:33N 25°46' W 080°09'0 0.0
2016-Nov-30 12:33N 25°46' W 080°09'0 0.0
2016-Nov-30 11:31N 25°46' W 080°09'0 0.0
2016-Nov-30 10:33N 25°46' W 080°09'7 6.6
2016-Nov-30 09:33N 25°47' W 080°02'8 8.3
2016-Nov-30 08:33N 25°55' W 080°01'1110.9
2016-Nov-30 07:34N 26°06' W 080°01'1110.8
2016-Nov-30 06:33N 26°17' W 080°00'1111.2
2016-Nov-30 05:33N 26°28' W 079°60'2412.0
2016-Nov-30 03:33N 26°52' W 079°59'1211.8
2016-Nov-30 02:33N 27°04' W 079°59'  

Dump ship's entire track history